createdAt,value
2023-04-28T00:04:17.046Z,101484.81
2023-04-28T00:09:18.985Z,101481.56
2023-04-28T00:14:20.501Z,101474.94
2023-04-28T00:19:22.286Z,101465.06
2023-04-28T00:24:23.852Z,101453.03
2023-04-28T00:29:25.485Z,101457.59
2023-04-28T00:34:27.027Z,101436.00
2023-04-28T00:39:28.551Z,101424.41
2023-04-28T00:44:30.123Z,101410.50
2023-04-28T00:49:31.930Z,101404.03
2023-04-28T00:54:34.810Z,101387.41
2023-04-28T00:59:36.777Z,101372.53
2023-04-28T01:04:38.552Z,101372.78
2023-04-28T01:09:40.217Z,101374.50
2023-04-28T01:14:42.312Z,101362.25
2023-04-28T01:19:43.822Z,101370.84
2023-04-28T01:24:45.355Z,101366.38
2023-04-28T01:29:46.902Z,101364.38
2023-04-28T01:34:48.415Z,101360.06
2023-04-28T01:39:49.945Z,101353.38
2023-04-28T01:44:51.464Z,101354.22
2023-04-28T01:49:52.939Z,101355.06
2023-04-28T01:54:54.808Z,101348.06
2023-04-28T01:59:56.354Z,101341.91
2023-04-28T02:04:58.269Z,101330.47
2023-04-28T02:09:59.776Z,101332.59
2023-04-28T02:15:01.296Z,101323.88
2023-04-28T02:20:02.859Z,101331.88
2023-04-28T02:25:04.716Z,101313.72
2023-04-28T02:30:06.871Z,101317.28
2023-04-28T02:35:08.502Z,101318.56
2023-04-28T02:40:10.331Z,101298.09
2023-04-28T02:45:11.921Z,101272.50
2023-04-28T02:50:13.386Z,101265.31
2023-04-28T02:55:23.598Z,101250.59
2023-04-28T03:00:25.125Z,101251.63
2023-04-28T03:05:26.993Z,101247.03
2023-04-28T03:10:28.541Z,101230.16
2023-04-28T03:15:30.117Z,101230.72
2023-04-28T03:20:31.658Z,101236.44
2023-04-28T03:25:33.155Z,101227.56
2023-04-28T03:30:34.604Z,101215.09
2023-04-28T03:35:36.351Z,101210.53
2023-04-28T03:40:38.996Z,101195.66
2023-04-28T03:45:41.476Z,101191.06
2023-04-28T03:50:45.445Z,101172.22
2023-04-28T03:55:46.990Z,101165.78
2023-04-28T04:00:48.535Z,101167.47
2023-04-28T04:05:50.262Z,101161.63
2023-04-28T04:10:52.678Z,101156.19
2023-04-28T04:15:54.250Z,101147.59
2023-04-28T04:20:57.130Z,101158.19
2023-04-28T04:25:58.706Z,101149.03
2023-04-28T04:31:00.261Z,101130.59
2023-04-28T04:36:01.970Z,101129.16
2023-04-28T04:41:03.499Z,101127.16
2023-04-28T04:46:05.104Z,101126.59
2023-04-28T04:51:07.210Z,101125.59
2023-04-28T04:56:08.768Z,101130.03
2023-04-28T05:01:10.352Z,101121.00
2023-04-28T05:06:12.039Z,101129.44
2023-04-28T05:11:13.570Z,101132.47
2023-04-28T05:16:15.210Z,101129.00
2023-04-28T05:21:16.965Z,101115.56
2023-04-28T05:26:18.436Z,101131.16
2023-04-28T05:31:20.005Z,101128.44
2023-04-28T05:36:21.595Z,101115.72
2023-04-28T05:41:23.124Z,101117.56
2023-04-28T05:46:30.519Z,101103.56
2023-04-28T05:51:33.664Z,101070.69
2023-04-28T05:56:35.313Z,101066.09
2023-04-28T06:01:38.658Z,101061.81
2023-04-28T06:06:40.175Z,101053.53
2023-04-28T06:11:41.745Z,101062.13
2023-04-28T06:16:43.433Z,101073.06
2023-04-28T06:21:46.097Z,101101.28
2023-04-28T06:26:47.619Z,101112.41
2023-04-28T06:31:49.190Z,101126.09
2023-04-28T06:36:50.894Z,101127.19
2023-04-28T06:41:52.489Z,101113.25
2023-04-28T06:46:54.109Z,101104.28
2023-04-28T06:51:55.643Z,101091.56
2023-04-28T06:56:57.182Z,101094.97
2023-04-28T07:01:58.816Z,101067.97
2023-04-28T07:07:00.413Z,101089.00
2023-04-28T07:12:02.081Z,101074.25
2023-04-28T07:17:03.585Z,101067.22
2023-04-28T07:22:05.107Z,101068.09
2023-04-28T07:27:06.607Z,101059.13
2023-04-28T07:32:11.257Z,101051.22
2023-04-28T07:37:12.800Z,101048.44
2023-04-28T07:42:14.363Z,101049.41
2023-04-28T07:47:15.902Z,101065.75
2023-04-28T07:52:17.388Z,101056.59
2023-04-28T07:57:18.845Z,101059.69
2023-04-28T08:02:20.987Z,101059.31
2023-04-28T08:07:22.679Z,101058.66
2023-04-28T08:12:24.276Z,101040.34
2023-04-28T08:17:25.892Z,101029.00
2023-04-28T08:22:27.485Z,101039.69
2023-04-28T08:27:29.025Z,101040.84
2023-04-28T08:32:30.616Z,101036.13
2023-04-28T08:37:32.147Z,101026.78
2023-04-28T08:42:34.643Z,101012.44
2023-04-28T08:47:38.385Z,101010.63
2023-04-28T08:52:41.876Z,100992.25
2023-04-28T08:57:45.162Z,100998.63
2023-04-28T09:02:47.050Z,101001.44
2023-04-28T09:07:51.921Z,100989.97
2023-04-28T09:12:55.821Z,100982.66
2023-04-28T09:17:57.497Z,100980.16
2023-04-28T09:23:13.965Z,100974.19
2023-04-28T09:28:22.163Z,100967.34
2023-04-28T09:33:23.759Z,100968.19
2023-04-28T09:38:25.510Z,100977.47
2023-04-28T09:43:36.199Z,100977.88
2023-04-28T09:48:38.290Z,100977.88
2023-04-28T09:53:40.005Z,100975.53
2023-04-28T09:58:45.085Z,100978.28
2023-04-28T10:03:47.985Z,100977.91
2023-04-28T10:08:52.195Z,100971.22
2023-04-28T10:13:54.065Z,100969.19
2023-04-28T10:18:56.795Z,100969.72
2023-04-28T10:24:33.440Z,100954.59
2023-04-28T10:29:35.606Z,100955.88
2023-04-28T10:34:37.148Z,100946.63
2023-04-28T10:39:39.119Z,100946.97
2023-04-28T10:44:43.924Z,100944.50
2023-04-28T10:49:57.694Z,100946.78
2023-04-28T10:55:27.042Z,100950.22
2023-04-28T11:00:30.661Z,100945.75
2023-04-28T11:05:34.631Z,100938.09
2023-04-28T11:11:10.126Z,100937.47
2023-04-28T11:16:14.696Z,100933.94
2023-04-28T11:21:16.768Z,100934.47
2023-04-28T11:26:20.076Z,100936.47
2023-04-28T11:31:24.365Z,100930.31
2023-04-28T11:36:38.201Z,100927.16
2023-04-28T11:41:44.737Z,100931.28
2023-04-28T11:46:57.473Z,100927.53
2023-04-28T11:52:05.956Z,100925.47
2023-04-28T11:57:07.937Z,100922.38
2023-04-28T12:02:09.884Z,100923.09
2023-04-28T12:07:17.265Z,100918.47
2023-04-28T12:12:45.202Z,100904.44
2023-04-28T12:17:51.922Z,100913.28
2023-04-28T12:22:53.650Z,100912.72
2023-04-28T12:28:02.504Z,100915.75
2023-04-28T12:33:04.346Z,100908.53
2023-04-28T12:38:06.012Z,100900.66
2023-04-28T12:43:07.501Z,100908.31
2023-04-28T12:48:09.085Z,100903.00
2023-04-28T12:53:11.094Z,100901.66
2023-04-28T12:58:12.697Z,100900.25
2023-04-28T13:03:15.898Z,100907.91
2023-04-28T13:08:17.487Z,100910.53
2023-04-28T13:13:19.008Z,100909.50
2023-04-28T13:18:20.541Z,100910.03
2023-04-28T13:23:22.227Z,100908.66
2023-04-28T13:28:24.178Z,100914.97
2023-04-28T13:33:31.109Z,100913.97
2023-04-28T13:38:32.972Z,100910.22
2023-04-28T13:43:34.530Z,100909.91
2023-04-28T13:48:36.269Z,100915.47
2023-04-28T13:53:40.513Z,100911.63
2023-04-28T13:58:42.101Z,100909.66
2023-04-28T14:03:44.640Z,100907.94
2023-04-28T14:08:46.413Z,100901.22
2023-04-28T14:13:47.886Z,100910.13
2023-04-28T14:18:49.761Z,100923.66
2023-04-28T14:23:51.302Z,100921.25
2023-04-28T14:28:53.889Z,100915.41
2023-04-28T14:33:55.521Z,100922.91
2023-04-28T14:38:57.699Z,100916.47
2023-04-28T14:43:59.265Z,100914.59
2023-04-28T14:49:02.523Z,100911.72
2023-04-28T14:54:04.409Z,100925.59
2023-04-28T14:59:06.104Z,100928.41
2023-04-28T15:04:08.174Z,100928.41
2023-04-28T15:09:10.607Z,100921.16
2023-04-28T15:14:12.323Z,100918.34
2023-04-28T15:19:14.609Z,100925.84
2023-04-28T15:24:18.526Z,100928.50
2023-04-28T15:29:20.712Z,100931.25
2023-04-28T15:34:22.973Z,100936.97
2023-04-28T15:39:25.648Z,100942.44
2023-04-28T15:44:29.226Z,100949.59
2023-04-28T15:49:31.952Z,100960.03
2023-04-28T15:54:33.564Z,100957.50
2023-04-28T15:59:35.793Z,100973.97
2023-04-28T16:04:37.930Z,100976.00
2023-04-28T16:09:39.666Z,100974.16
2023-04-28T16:14:41.256Z,100967.88
2023-04-28T16:19:43.567Z,100983.78
2023-04-28T16:24:46.288Z,100996.09
2023-04-28T16:29:47.903Z,100986.84
2023-04-28T16:34:49.541Z,100997.28
2023-04-28T16:39:51.638Z,100990.97
2023-04-28T16:44:53.439Z,101002.94
2023-04-28T16:49:55.073Z,101005.47
2023-04-28T16:54:56.686Z,101001.56
2023-04-28T16:59:58.179Z,100999.03
2023-04-28T17:04:59.743Z,101017.50
2023-04-28T17:10:01.376Z,101019.91
2023-04-28T17:15:03.076Z,101024.69
2023-04-28T17:20:05.038Z,101026.94
2023-04-28T17:25:07.124Z,101029.19
2023-04-28T17:30:11.741Z,101043.41
2023-04-28T17:35:13.207Z,101034.00
2023-04-28T17:40:14.667Z,101041.69
2023-04-28T17:45:16.175Z,101049.25
2023-04-28T17:50:17.718Z,101055.22
2023-04-28T17:55:19.279Z,101062.59
2023-04-28T18:00:20.985Z,101074.75
2023-04-28T18:05:24.306Z,101068.94
2023-04-28T18:10:28.109Z,101074.09
2023-04-28T18:15:30.559Z,101082.47
2023-04-28T18:20:32.020Z,101089.81
2023-04-28T18:25:33.614Z,101093.53
2023-04-28T18:30:38.005Z,101096.66
2023-04-28T18:35:39.951Z,101098.16
2023-04-28T18:40:41.494Z,101107.19
2023-04-28T18:45:43.874Z,101109.06
2023-04-28T18:50:48.468Z,101111.78
2023-04-28T18:55:50.115Z,101112.28
2023-04-28T19:00:52.508Z,101118.03
2023-04-28T19:05:54.182Z,101130.97
2023-04-28T19:11:00.297Z,101142.25
2023-04-28T19:16:02.092Z,101147.50
2023-04-28T19:21:04.766Z,101162.47
2023-04-28T19:26:07.695Z,101175.22
2023-04-28T19:31:09.383Z,101187.38
2023-04-28T19:36:10.900Z,101192.03
2023-04-28T19:41:12.435Z,101209.56
2023-04-28T19:46:15.093Z,101216.63
2023-04-28T19:51:16.883Z,101220.00
2023-04-28T19:56:18.456Z,101230.91
2023-04-28T20:01:20.042Z,101238.81
2023-04-28T20:06:22.247Z,101239.28
2023-04-28T20:11:24.717Z,101256.59
2023-04-28T20:16:27.074Z,101254.25
2023-04-28T20:21:28.622Z,101250.28
2023-04-28T20:26:31.204Z,101259.88
2023-04-28T20:31:33.099Z,101265.84
2023-04-28T20:36:34.697Z,101266.78
2023-04-28T20:41:36.788Z,101285.50
2023-04-28T20:46:38.381Z,101285.66
2023-04-28T20:51:45.300Z,101296.50
2023-04-28T20:56:46.796Z,101311.47
2023-04-28T21:01:48.713Z,101316.06
2023-04-28T21:06:51.681Z,101326.41
2023-04-28T21:11:53.138Z,101328.91
2023-04-28T21:16:54.770Z,101337.63
2023-04-28T21:21:57.068Z,101339.19
2023-04-28T21:26:59.560Z,101343.78
2023-04-28T21:32:01.171Z,101350.25
2023-04-28T21:37:02.734Z,101349.84
2023-04-28T21:42:04.760Z,101364.72
2023-04-28T21:47:09.487Z,101367.06
2023-04-28T21:52:10.972Z,101370.81
2023-04-28T21:57:12.509Z,101369.66
2023-04-28T22:02:14.175Z,101373.97
2023-04-28T22:07:16.231Z,101373.69
2023-04-28T22:12:18.696Z,101376.47
2023-04-28T22:17:20.283Z,101374.28
2023-04-28T22:22:21.940Z,101376.72
2023-04-28T22:27:23.488Z,101386.94
2023-04-28T22:32:26.537Z,101384.31
2023-04-28T22:37:28.184Z,101397.09
2023-04-28T22:42:29.727Z,101403.56
2023-04-28T22:47:31.511Z,101394.94
2023-04-28T22:52:34.168Z,101413.56
2023-04-28T22:57:36.529Z,101412.31
2023-04-28T23:02:38.187Z,101404.75
2023-04-28T23:07:39.824Z,101404.88
2023-04-28T23:12:41.365Z,101407.59
2023-04-28T23:17:43.309Z,101423.41
2023-04-28T23:22:44.883Z,101427.16
2023-04-28T23:27:46.553Z,101429.03
2023-04-28T23:32:48.076Z,101434.78
2023-04-28T23:37:49.550Z,101434.06
2023-04-28T23:42:51.059Z,101443.66
2023-04-28T23:47:53.376Z,101452.09
2023-04-28T23:52:54.974Z,101449.81
2023-04-28T23:57:56.490Z,101457.53
